sensor_id;sensor_type;location;lat;lon;timestamp;temperature;humidity
50907;DHT22;36882;27.680;85.304;2023-10-09T00:00:38;18.90;99.90
50907;DHT22;36882;27.680;85.304;2023-10-09T00:03:08;18.80;99.90
50907;DHT22;36882;27.680;85.304;2023-10-09T00:05:39;18.90;99.90
50907;DHT22;36882;27.680;85.304;2023-10-09T00:08:16;18.90;99.90
50907;DHT22;36882;27.680;85.304;2023-10-09T00:11:07;18.80;99.90
50907;DHT22;36882;27.680;85.304;2023-10-09T00:13:47;18.90;99.90
50907;DHT22;36882;27.680;85.304;2023-10-09T00:16:27;18.80;99.90
50907;DHT22;36882;27.680;85.304;2023-10-09T00:19:06;19.00;99.90
50907;DHT22;36882;27.680;85.304;2023-10-09T00:21:47;19.00;99.90
50907;DHT22;36882;27.680;85.304;2023-10-09T00:24:18;18.80;99.90
50907;DHT22;36882;27.680;85.304;2023-10-09T00:26:55;18.90;99.90
50907;DHT22;36882;27.680;85.304;2023-10-09T00:29:31;18.90;99.90
50907;DHT22;36882;27.680;85.304;2023-10-09T00:32:05;19.00;99.90
50907;DHT22;36882;27.680;85.304;2023-10-09T00:34:55;19.00;99.90
50907;DHT22;36882;27.680;85.304;2023-10-09T00:37:28;19.00;99.90
50907;DHT22;36882;27.680;85.304;2023-10-09T00:40:04;18.90;99.90
50907;DHT22;36882;27.680;85.304;2023-10-09T00:42:49;18.80;99.90
50907;DHT22;36882;27.680;85.304;2023-10-09T00:45:25;18.80;99.90
50907;DHT22;36882;27.680;85.304;2023-10-09T00:48:01;18.90;99.90
50907;DHT22;36882;27.680;85.304;2023-10-09T00:50:32;18.90;99.90
50907;DHT22;36882;27.680;85.304;2023-10-09T00:53:05;18.90;99.90
50907;DHT22;36882;27.680;85.304;2023-10-09T00:55:42;18.90;99.90
50907;DHT22;36882;27.680;85.304;2023-10-09T00:58:14;18.80;99.90
50907;DHT22;36882;27.680;85.304;2023-10-09T01:00:46;18.70;99.90
50907;DHT22;36882;27.680;85.304;2023-10-09T01:03:18;18.70;99.90
50907;DHT22;36882;27.680;85.304;2023-10-09T01:06:01;18.80;99.90
50907;DHT22;36882;27.680;85.304;2023-10-09T01:08:41;18.90;99.90
50907;DHT22;36882;27.680;85.304;2023-10-09T01:11:16;19.00;99.90
50907;DHT22;36882;27.680;85.304;2023-10-09T01:13:52;19.20;99.90
50907;DHT22;36882;27.680;85.304;2023-10-09T01:16:23;19.20;99.90
50907;DHT22;36882;27.680;85.304;2023-10-09T01:18:55;19.30;99.90
50907;DHT22;36882;27.680;85.304;2023-10-09T01:21:29;19.70;99.90
50907;DHT22;36882;27.680;85.304;2023-10-09T01:24:01;19.80;99.90
50907;DHT22;36882;27.680;85.304;2023-10-09T01:26:40;19.70;99.90
50907;DHT22;36882;27.680;85.304;2023-10-09T01:29:24;19.80;99.90
50907;DHT22;36882;27.680;85.304;2023-10-09T01:31:57;19.70;99.90
50907;DHT22;36882;27.680;85.304;2023-10-09T01:34:33;19.60;99.90
50907;DHT22;36882;27.680;85.304;2023-10-09T01:39:55;19.80;99.90
50907;DHT22;36882;27.680;85.304;2023-10-09T01:42:30;19.90;99.90
50907;DHT22;36882;27.680;85.304;2023-10-09T01:45:01;20.10;99.90
50907;DHT22;36882;27.680;85.304;2023-10-09T01:47:44;20.10;99.90
50907;DHT22;36882;27.680;85.304;2023-10-09T01:50:22;20.30;99.90
50907;DHT22;36882;27.680;85.304;2023-10-09T01:53:03;20.40;99.90
50907;DHT22;36882;27.680;85.304;2023-10-09T01:55:35;20.40;99.90
50907;DHT22;36882;27.680;85.304;2023-10-09T02:46:14;21.30;99.90
50907;DHT22;36882;27.680;85.304;2023-10-09T02:48:49;21.40;99.90
50907;DHT22;36882;27.680;85.304;2023-10-09T02:51:23;21.60;99.90
50907;DHT22;36882;27.680;85.304;2023-10-09T02:53:59;21.90;99.90
50907;DHT22;36882;27.680;85.304;2023-10-09T02:56:37;21.90;99.90
50907;DHT22;36882;27.680;85.304;2023-10-09T02:59:11;22.10;99.90
50907;DHT22;36882;27.680;85.304;2023-10-09T03:01:42;22.20;99.90
50907;DHT22;36882;27.680;85.304;2023-10-09T03:04:13;22.40;99.90
50907;DHT22;36882;27.680;85.304;2023-10-09T03:06:45;22.70;99.90
50907;DHT22;36882;27.680;85.304;2023-10-09T03:09:21;22.50;99.90
50907;DHT22;36882;27.680;85.304;2023-10-09T03:12:02;22.00;99.90
50907;DHT22;36882;27.680;85.304;2023-10-09T03:14:38;21.70;99.90
50907;DHT22;36882;27.680;85.304;2023-10-09T03:17:09;22.00;99.90
50907;DHT22;36882;27.680;85.304;2023-10-09T03:19:42;22.40;99.90
50907;DHT22;36882;27.680;85.304;2023-10-09T03:22:12;22.60;99.90
50907;DHT22;36882;27.680;85.304;2023-10-09T03:24:43;22.70;99.90
50907;DHT22;36882;27.680;85.304;2023-10-09T03:27:18;22.80;99.90
50907;DHT22;36882;27.680;85.304;2023-10-09T03:29:49;22.90;99.90
50907;DHT22;36882;27.680;85.304;2023-10-09T03:32:23;23.00;99.90
50907;DHT22;36882;27.680;85.304;2023-10-09T03:34:54;23.10;99.90
50907;DHT22;36882;27.680;85.304;2023-10-09T03:37:25;23.20;99.90
50907;DHT22;36882;27.680;85.304;2023-10-09T03:40:05;23.10;99.90
50907;DHT22;36882;27.680;85.304;2023-10-09T03:42:47;23.10;99.90
50907;DHT22;36882;27.680;85.304;2023-10-09T03:45:20;23.20;99.90
50907;DHT22;36882;27.680;85.304;2023-10-09T03:48:01;23.30;99.90
50907;DHT22;36882;27.680;85.304;2023-10-09T03:50:51;23.40;99.90
50907;DHT22;36882;27.680;85.304;2023-10-09T03:53:42;23.40;99.90
50907;DHT22;36882;27.680;85.304;2023-10-09T03:56:13;23.40;99.90
50907;DHT22;36882;27.680;85.304;2023-10-09T03:58:46;23.50;99.90
50907;DHT22;36882;27.680;85.304;2023-10-09T04:01:22;23.60;99.90
50907;DHT22;36882;27.680;85.304;2023-10-09T04:03:53;23.50;99.90
50907;DHT22;36882;27.680;85.304;2023-10-09T04:06:31;23.50;99.90
50907;DHT22;36882;27.680;85.304;2023-10-09T04:09:08;23.60;99.90
50907;DHT22;36882;27.680;85.304;2023-10-09T04:11:52;23.70;99.90
50907;DHT22;36882;27.680;85.304;2023-10-09T04:15:06;23.70;99.90
50907;DHT22;36882;27.680;85.304;2023-10-09T04:17:45;23.80;99.90
50907;DHT22;36882;27.680;85.304;2023-10-09T04:20:20;23.90;99.90
50907;DHT22;36882;27.680;85.304;2023-10-09T04:22:50;24.00;99.90
50907;DHT22;36882;27.680;85.304;2023-10-09T04:25:21;24.00;99.90
50907;DHT22;36882;27.680;85.304;2023-10-09T04:28:12;23.70;99.90
50907;DHT22;36882;27.680;85.304;2023-10-09T04:30:46;23.90;99.90
50907;DHT22;36882;27.680;85.304;2023-10-09T04:33:23;24.20;99.90
50907;DHT22;36882;27.680;85.304;2023-10-09T04:36:07;24.30;99.90
50907;DHT22;36882;27.680;85.304;2023-10-09T04:38:56;24.40;99.90
50907;DHT22;36882;27.680;85.304;2023-10-09T04:41:46;24.50;99.90
50907;DHT22;36882;27.680;85.304;2023-10-09T04:44:16;24.50;99.90
50907;DHT22;36882;27.680;85.304;2023-10-09T04:46:50;24.50;99.90
50907;DHT22;36882;27.680;85.304;2023-10-09T04:49:42;24.50;99.90
50907;DHT22;36882;27.680;85.304;2023-10-09T04:52:19;24.50;99.90
50907;DHT22;36882;27.680;85.304;2023-10-09T04:55:09;24.70;99.90
50907;DHT22;36882;27.680;85.304;2023-10-09T04:57:41;24.80;99.90
50907;DHT22;36882;27.680;85.304;2023-10-09T05:00:16;24.70;99.90
50907;DHT22;36882;27.680;85.304;2023-10-09T05:03:12;24.40;99.90
50907;DHT22;36882;27.680;85.304;2023-10-09T05:05:55;24.40;99.90
50907;DHT22;36882;27.680;85.304;2023-10-09T05:08:28;24.60;99.90
50907;DHT22;36882;27.680;85.304;2023-10-09T05:11:02;24.50;99.90
50907;DHT22;36882;27.680;85.304;2023-10-09T05:13:34;24.60;99.90
50907;DHT22;36882;27.680;85.304;2023-10-09T05:16:19;25.00;99.90
50907;DHT22;36882;27.680;85.304;2023-10-09T05:18:56;25.00;99.90
50907;DHT22;36882;27.680;85.304;2023-10-09T05:24:17;25.20;99.90
50907;DHT22;36882;27.680;85.304;2023-10-09T05:26:50;25.20;99.90
50907;DHT22;36882;27.680;85.304;2023-10-09T05:29:25;25.20;99.90
50907;DHT22;36882;27.680;85.304;2023-10-09T05:32:03;25.20;99.20
50907;DHT22;36882;27.680;85.304;2023-10-09T05:34:44;25.20;98.70
50907;DHT22;36882;27.680;85.304;2023-10-09T05:37:32;25.40;99.30
50907;DHT22;36882;27.680;85.304;2023-10-09T05:40:04;25.40;99.00
50907;DHT22;36882;27.680;85.304;2023-10-09T05:42:55;25.40;98.90
50907;DHT22;36882;27.680;85.304;2023-10-09T05:45:29;25.60;99.80
50907;DHT22;36882;27.680;85.304;2023-10-09T05:48:18;25.80;99.90
50907;DHT22;36882;27.680;85.304;2023-10-09T05:50:48;25.90;99.30
50907;DHT22;36882;27.680;85.304;2023-10-09T05:53:54;26.10;99.90
50907;DHT22;36882;27.680;85.304;2023-10-09T05:56:53;26.20;99.40
50907;DHT22;36882;27.680;85.304;2023-10-09T05:59:49;26.30;98.90
50907;DHT22;36882;27.680;85.304;2023-10-09T06:02:38;26.30;99.50
50907;DHT22;36882;27.680;85.304;2023-10-09T06:05:35;26.30;99.90
50907;DHT22;36882;27.680;85.304;2023-10-09T06:08:11;26.40;99.90
50907;DHT22;36882;27.680;85.304;2023-10-09T06:10:42;26.30;99.90
50907;DHT22;36882;27.680;85.304;2023-10-09T06:13:13;25.80;99.90
50907;DHT22;36882;27.680;85.304;2023-10-09T06:16:01;26.00;99.90
50907;DHT22;36882;27.680;85.304;2023-10-09T06:19:12;26.00;99.90
50907;DHT22;36882;27.680;85.304;2023-10-09T06:21:57;26.00;99.90
50907;DHT22;36882;27.680;85.304;2023-10-09T06:24:34;25.90;99.90
50907;DHT22;36882;27.680;85.304;2023-10-09T06:27:24;25.50;99.90
50907;DHT22;36882;27.680;85.304;2023-10-09T06:30:01;25.60;99.90
50907;DHT22;36882;27.680;85.304;2023-10-09T06:32:51;25.60;99.90
50907;DHT22;36882;27.680;85.304;2023-10-09T06:35:42;25.70;99.90
50907;DHT22;36882;27.680;85.304;2023-10-09T06:38:23;25.60;99.90
50907;DHT22;36882;27.680;85.304;2023-10-09T06:41:05;25.60;99.90
50907;DHT22;36882;27.680;85.304;2023-10-09T06:43:35;25.70;99.90
50907;DHT22;36882;27.680;85.304;2023-10-09T06:46:24;25.80;99.90
50907;DHT22;36882;27.680;85.304;2023-10-09T06:49:04;25.80;99.90
50907;DHT22;36882;27.680;85.304;2023-10-09T06:51:55;25.70;99.90
50907;DHT22;36882;27.680;85.304;2023-10-09T06:54:43;25.50;99.90
50907;DHT22;36882;27.680;85.304;2023-10-09T06:57:19;25.40;99.90
50907;DHT22;36882;27.680;85.304;2023-10-09T07:00:10;25.70;99.90
50907;DHT22;36882;27.680;85.304;2023-10-09T07:03:18;25.90;99.90
50907;DHT22;36882;27.680;85.304;2023-10-09T07:05:49;26.10;99.90
50907;DHT22;36882;27.680;85.304;2023-10-09T07:08:35;25.90;99.40
50907;DHT22;36882;27.680;85.304;2023-10-09T07:11:14;26.10;99.90
50907;DHT22;36882;27.680;85.304;2023-10-09T07:14:02;26.20;99.90
50907;DHT22;36882;27.680;85.304;2023-10-09T07:16:36;26.40;99.60
50907;DHT22;36882;27.680;85.304;2023-10-09T07:19:30;26.10;99.30
50907;DHT22;36882;27.680;85.304;2023-10-09T07:22:09;26.20;99.90
50907;DHT22;36882;27.680;85.304;2023-10-09T07:24:54;26.40;99.60
50907;DHT22;36882;27.680;85.304;2023-10-09T07:27:29;25.90;99.90
50907;DHT22;36882;27.680;85.304;2023-10-09T07:30:37;25.80;99.80
50907;DHT22;36882;27.680;85.304;2023-10-09T07:33:08;26.10;99.90
50907;DHT22;36882;27.680;85.304;2023-10-09T07:35:46;26.30;99.90
50907;DHT22;36882;27.680;85.304;2023-10-09T07:38:39;26.20;99.90
50907;DHT22;36882;27.680;85.304;2023-10-09T07:41:14;26.40;99.90
50907;DHT22;36882;27.680;85.304;2023-10-09T07:43:44;26.50;99.40
50907;DHT22;36882;27.680;85.304;2023-10-09T07:46:19;26.50;99.10
50907;DHT22;36882;27.680;85.304;2023-10-09T07:49:24;26.60;99.30
50907;DHT22;36882;27.680;85.304;2023-10-09T07:51:56;26.50;99.70
50907;DHT22;36882;27.680;85.304;2023-10-09T07:54:28;26.70;99.90
50907;DHT22;36882;27.680;85.304;2023-10-09T07:57:05;26.50;99.90
50907;DHT22;36882;27.680;85.304;2023-10-09T07:59:44;26.60;99.30
50907;DHT22;36882;27.680;85.304;2023-10-09T08:02:42;26.70;99.00
50907;DHT22;36882;27.680;85.304;2023-10-09T08:05:12;26.90;99.80
50907;DHT22;36882;27.680;85.304;2023-10-09T08:07:49;26.70;98.60
50907;DHT22;36882;27.680;85.304;2023-10-09T08:11:07;26.80;99.10
50907;DHT22;36882;27.680;85.304;2023-10-09T08:13:56;26.60;99.20
50907;DHT22;36882;27.680;85.304;2023-10-09T08:16:30;26.40;99.90
50907;DHT22;36882;27.680;85.304;2023-10-09T08:19:06;26.70;99.90
50907;DHT22;36882;27.680;85.304;2023-10-09T08:21:55;26.70;99.90
50907;DHT22;36882;27.680;85.304;2023-10-09T08:24:44;26.80;99.90
50907;DHT22;36882;27.680;85.304;2023-10-09T08:27:25;26.60;99.90
50907;DHT22;36882;27.680;85.304;2023-10-09T08:30:06;26.70;99.90
50907;DHT22;36882;27.680;85.304;2023-10-09T08:32:50;26.80;99.90
50907;DHT22;36882;27.680;85.304;2023-10-09T08:35:36;26.80;99.90
50907;DHT22;36882;27.680;85.304;2023-10-09T08:38:33;26.70;99.90
50907;DHT22;36882;27.680;85.304;2023-10-09T08:41:08;26.60;99.90
50907;DHT22;36882;27.680;85.304;2023-10-09T08:43:50;26.60;99.90
50907;DHT22;36882;27.680;85.304;2023-10-09T08:46:26;26.60;99.90
50907;DHT22;36882;27.680;85.304;2023-10-09T08:48:58;26.40;99.90
50907;DHT22;36882;27.680;85.304;2023-10-09T08:51:29;26.40;99.90
50907;DHT22;36882;27.680;85.304;2023-10-09T08:54:00;26.70;99.90
50907;DHT22;36882;27.680;85.304;2023-10-09T08:56:31;26.70;99.70
50907;DHT22;36882;27.680;85.304;2023-10-09T08:59:01;26.70;99.60
50907;DHT22;36882;27.680;85.304;2023-10-09T09:01:32;26.50;99.90
50907;DHT22;36882;27.680;85.304;2023-10-09T09:04:04;26.30;99.90
50907;DHT22;36882;27.680;85.304;2023-10-09T09:06:38;26.50;99.90
50907;DHT22;36882;27.680;85.304;2023-10-09T09:09:12;26.60;99.90
50907;DHT22;36882;27.680;85.304;2023-10-09T09:11:46;26.60;99.90
50907;DHT22;36882;27.680;85.304;2023-10-09T09:14:19;26.50;99.90
50907;DHT22;36882;27.680;85.304;2023-10-09T09:16:51;26.40;99.90
50907;DHT22;36882;27.680;85.304;2023-10-09T09:19:31;26.40;99.90
50907;DHT22;36882;27.680;85.304;2023-10-09T09:22:02;26.50;99.90
50907;DHT22;36882;27.680;85.304;2023-10-09T09:24:41;26.50;99.90
50907;DHT22;36882;27.680;85.304;2023-10-09T09:27:50;26.50;99.90
50907;DHT22;36882;27.680;85.304;2023-10-09T09:30:36;26.50;99.90
50907;DHT22;36882;27.680;85.304;2023-10-09T09:33:27;26.20;99.90
50907;DHT22;36882;27.680;85.304;2023-10-09T09:36:10;26.40;99.90
50907;DHT22;36882;27.680;85.304;2023-10-09T09:38:41;26.60;99.90
50907;DHT22;36882;27.680;85.304;2023-10-09T09:41:21;26.40;99.90
50907;DHT22;36882;27.680;85.304;2023-10-09T09:43:59;26.20;99.90
50907;DHT22;36882;27.680;85.304;2023-10-09T09:46:35;26.20;99.90
50907;DHT22;36882;27.680;85.304;2023-10-09T09:49:07;25.90;99.90
50907;DHT22;36882;27.680;85.304;2023-10-09T09:51:49;25.80;99.90
50907;DHT22;36882;27.680;85.304;2023-10-09T09:54:19;25.80;99.90
50907;DHT22;36882;27.680;85.304;2023-10-09T09:56:55;25.80;99.90
50907;DHT22;36882;27.680;85.304;2023-10-09T09:59:28;25.90;99.90
50907;DHT22;36882;27.680;85.304;2023-10-09T10:02:00;26.00;99.90
50907;DHT22;36882;27.680;85.304;2023-10-09T10:04:40;26.00;99.90
50907;DHT22;36882;27.680;85.304;2023-10-09T10:07:12;25.90;99.90
50907;DHT22;36882;27.680;85.304;2023-10-09T10:09:47;25.90;99.90
50907;DHT22;36882;27.680;85.304;2023-10-09T10:15:22;25.70;99.90
50907;DHT22;36882;27.680;85.304;2023-10-09T10:20:31;25.80;99.90
50907;DHT22;36882;27.680;85.304;2023-10-09T10:23:20;25.50;99.90
50907;DHT22;36882;27.680;85.304;2023-10-09T10:25:55;25.60;99.90
50907;DHT22;36882;27.680;85.304;2023-10-09T10:29:16;25.50;99.90
50907;DHT22;36882;27.680;85.304;2023-10-09T10:32:04;25.50;99.90
50907;DHT22;36882;27.680;85.304;2023-10-09T10:37:36;25.40;99.90
50907;DHT22;36882;27.680;85.304;2023-10-09T10:40:33;25.60;99.90
50907;DHT22;36882;27.680;85.304;2023-10-09T10:43:27;25.60;99.90
50907;DHT22;36882;27.680;85.304;2023-10-09T10:46:17;25.50;99.90
50907;DHT22;36882;27.680;85.304;2023-10-09T10:49:08;25.60;99.90
50907;DHT22;36882;27.680;85.304;2023-10-09T10:51:51;25.50;99.90
50907;DHT22;36882;27.680;85.304;2023-10-09T10:54:54;25.40;99.90
50907;DHT22;36882;27.680;85.304;2023-10-09T10:57:47;25.30;99.90
50907;DHT22;36882;27.680;85.304;2023-10-09T11:00:30;25.20;99.90
50907;DHT22;36882;27.680;85.304;2023-10-09T11:03:30;25.20;99.90
50907;DHT22;36882;27.680;85.304;2023-10-09T11:06:05;25.10;99.90
50907;DHT22;36882;27.680;85.304;2023-10-09T11:08:46;25.10;99.90
50907;DHT22;36882;27.680;85.304;2023-10-09T11:11:28;25.20;99.90
50907;DHT22;36882;27.680;85.304;2023-10-09T11:14:10;25.10;99.90
50907;DHT22;36882;27.680;85.304;2023-10-09T11:16:53;25.10;99.90
50907;DHT22;36882;27.680;85.304;2023-10-09T11:19:27;25.10;99.90
50907;DHT22;36882;27.680;85.304;2023-10-09T11:21:59;24.90;99.90
50907;DHT22;36882;27.680;85.304;2023-10-09T11:24:36;24.80;99.90
50907;DHT22;36882;27.680;85.304;2023-10-09T11:27:06;24.90;99.90
50907;DHT22;36882;27.680;85.304;2023-10-09T11:29:49;24.80;99.90
50907;DHT22;36882;27.680;85.304;2023-10-09T11:32:20;24.70;99.90
50907;DHT22;36882;27.680;85.304;2023-10-09T11:35:14;24.60;99.90
50907;DHT22;36882;27.680;85.304;2023-10-09T11:37:57;24.60;99.90
50907;DHT22;36882;27.680;85.304;2023-10-09T11:40:30;24.50;99.90
50907;DHT22;36882;27.680;85.304;2023-10-09T11:43:20;24.50;99.90
50907;DHT22;36882;27.680;85.304;2023-10-09T11:46:11;24.60;99.90
50907;DHT22;36882;27.680;85.304;2023-10-09T11:48:43;24.40;99.90
50907;DHT22;36882;27.680;85.304;2023-10-09T11:51:36;24.30;99.90
50907;DHT22;36882;27.680;85.304;2023-10-09T11:54:33;24.30;99.90
50907;DHT22;36882;27.680;85.304;2023-10-09T11:57:04;24.40;99.90
50907;DHT22;36882;27.680;85.304;2023-10-09T11:59:35;24.40;99.90
50907;DHT22;36882;27.680;85.304;2023-10-09T12:02:09;24.20;99.90
50907;DHT22;36882;27.680;85.304;2023-10-09T12:04:43;24.20;99.90
50907;DHT22;36882;27.680;85.304;2023-10-09T12:07:14;24.20;99.90
50907;DHT22;36882;27.680;85.304;2023-10-09T12:09:45;24.10;99.90
50907;DHT22;36882;27.680;85.304;2023-10-09T12:12:15;24.00;99.90
50907;DHT22;36882;27.680;85.304;2023-10-09T12:14:45;24.00;99.90
50907;DHT22;36882;27.680;85.304;2023-10-09T12:17:20;23.90;99.90
50907;DHT22;36882;27.680;85.304;2023-10-09T12:19:54;23.80;99.90
50907;DHT22;36882;27.680;85.304;2023-10-09T12:22:26;23.80;99.90
50907;DHT22;36882;27.680;85.304;2023-10-09T12:24:57;23.80;99.90
50907;DHT22;36882;27.680;85.304;2023-10-09T12:27:27;23.70;99.90
50907;DHT22;36882;27.680;85.304;2023-10-09T12:29:58;23.50;99.90
50907;DHT22;36882;27.680;85.304;2023-10-09T12:32:29;23.60;99.90
50907;DHT22;36882;27.680;85.304;2023-10-09T12:34:59;23.50;99.90
50907;DHT22;36882;27.680;85.304;2023-10-09T12:37:29;23.50;99.90
50907;DHT22;36882;27.680;85.304;2023-10-09T12:40:01;23.50;99.90
50907;DHT22;36882;27.680;85.304;2023-10-09T12:42:35;23.60;99.90
50907;DHT22;36882;27.680;85.304;2023-10-09T12:45:05;23.50;99.90
50907;DHT22;36882;27.680;85.304;2023-10-09T12:47:39;23.50;99.90
50907;DHT22;36882;27.680;85.304;2023-10-09T12:50:12;23.40;99.90
50907;DHT22;36882;27.680;85.304;2023-10-09T12:52:43;23.40;99.90
50907;DHT22;36882;27.680;85.304;2023-10-09T12:55:18;23.40;99.90
50907;DHT22;36882;27.680;85.304;2023-10-09T12:57:49;23.30;99.90
50907;DHT22;36882;27.680;85.304;2023-10-09T13:00:21;23.30;99.90
50907;DHT22;36882;27.680;85.304;2023-10-09T13:02:55;23.20;99.90
50907;DHT22;36882;27.680;85.304;2023-10-09T13:05:27;23.20;99.90
50907;DHT22;36882;27.680;85.304;2023-10-09T13:07:57;23.30;99.90
50907;DHT22;36882;27.680;85.304;2023-10-09T13:10:27;23.20;99.90
50907;DHT22;36882;27.680;85.304;2023-10-09T13:13:01;23.30;99.90
50907;DHT22;36882;27.680;85.304;2023-10-09T13:15:35;23.20;99.90
50907;DHT22;36882;27.680;85.304;2023-10-09T13:18:12;23.20;99.90
50907;DHT22;36882;27.680;85.304;2023-10-09T13:20:44;23.20;99.90
50907;DHT22;36882;27.680;85.304;2023-10-09T13:23:15;23.20;99.90
50907;DHT22;36882;27.680;85.304;2023-10-09T13:25:46;23.10;99.90
50907;DHT22;36882;27.680;85.304;2023-10-09T13:28:17;23.10;99.90
50907;DHT22;36882;27.680;85.304;2023-10-09T13:30:50;23.10;99.90
50907;DHT22;36882;27.680;85.304;2023-10-09T13:33:20;23.10;99.90
50907;DHT22;36882;27.680;85.304;2023-10-09T13:35:51;23.10;99.90
50907;DHT22;36882;27.680;85.304;2023-10-09T13:38:22;23.10;99.90
50907;DHT22;36882;27.680;85.304;2023-10-09T13:41:00;22.90;99.90
50907;DHT22;36882;27.680;85.304;2023-10-09T13:43:34;22.90;99.90
50907;DHT22;36882;27.680;85.304;2023-10-09T13:46:05;22.90;99.90
50907;DHT22;36882;27.680;85.304;2023-10-09T13:48:35;22.80;99.90
50907;DHT22;36882;27.680;85.304;2023-10-09T13:51:11;22.80;99.90
50907;DHT22;36882;27.680;85.304;2023-10-09T13:53:48;22.70;99.90
50907;DHT22;36882;27.680;85.304;2023-10-09T13:56:19;22.70;99.90
50907;DHT22;36882;27.680;85.304;2023-10-09T13:58:51;22.80;99.90
50907;DHT22;36882;27.680;85.304;2023-10-09T14:01:23;22.70;99.90
50907;DHT22;36882;27.680;85.304;2023-10-09T14:04:02;22.60;99.90
50907;DHT22;36882;27.680;85.304;2023-10-09T14:06:35;22.70;99.90
50907;DHT22;36882;27.680;85.304;2023-10-09T14:09:06;22.70;99.90
50907;DHT22;36882;27.680;85.304;2023-10-09T14:11:38;22.70;99.90
50907;DHT22;36882;27.680;85.304;2023-10-09T14:14:13;22.70;99.90
50907;DHT22;36882;27.680;85.304;2023-10-09T14:16:46;22.70;99.90
50907;DHT22;36882;27.680;85.304;2023-10-09T14:19:17;22.70;99.90
50907;DHT22;36882;27.680;85.304;2023-10-09T14:21:50;22.70;99.90
50907;DHT22;36882;27.680;85.304;2023-10-09T14:24:21;22.70;99.90
50907;DHT22;36882;27.680;85.304;2023-10-09T14:26:55;22.60;99.90
50907;DHT22;36882;27.680;85.304;2023-10-09T14:29:26;22.50;99.90
50907;DHT22;36882;27.680;85.304;2023-10-09T14:31:57;22.50;99.90
50907;DHT22;36882;27.680;85.304;2023-10-09T14:34:31;22.50;99.90
50907;DHT22;36882;27.680;85.304;2023-10-09T14:37:06;22.60;99.90
50907;DHT22;36882;27.680;85.304;2023-10-09T14:39:36;22.60;99.90
50907;DHT22;36882;27.680;85.304;2023-10-09T14:42:07;22.60;99.90
50907;DHT22;36882;27.680;85.304;2023-10-09T14:44:40;22.40;99.90
50907;DHT22;36882;27.680;85.304;2023-10-09T14:47:11;22.30;99.90
50907;DHT22;36882;27.680;85.304;2023-10-09T14:49:47;22.40;99.90
50907;DHT22;36882;27.680;85.304;2023-10-09T14:52:18;22.40;99.90
50907;DHT22;36882;27.680;85.304;2023-10-09T14:54:49;22.30;99.90
50907;DHT22;36882;27.680;85.304;2023-10-09T14:57:20;22.40;99.90
50907;DHT22;36882;27.680;85.304;2023-10-09T14:59:52;22.40;99.90
50907;DHT22;36882;27.680;85.304;2023-10-09T15:02:23;22.30;99.90
50907;DHT22;36882;27.680;85.304;2023-10-09T15:04:53;22.30;99.90
50907;DHT22;36882;27.680;85.304;2023-10-09T15:07:24;22.30;99.90
50907;DHT22;36882;27.680;85.304;2023-10-09T15:10:08;22.30;99.90
50907;DHT22;36882;27.680;85.304;2023-10-09T15:12:45;22.10;99.90
50907;DHT22;36882;27.680;85.304;2023-10-09T15:15:18;22.00;99.90
50907;DHT22;36882;27.680;85.304;2023-10-09T15:17:54;22.10;99.90
50907;DHT22;36882;27.680;85.304;2023-10-09T15:20:25;22.10;99.90
50907;DHT22;36882;27.680;85.304;2023-10-09T15:22:56;22.30;99.90
50907;DHT22;36882;27.680;85.304;2023-10-09T15:25:27;22.30;99.90
50907;DHT22;36882;27.680;85.304;2023-10-09T15:27:57;22.30;99.90
50907;DHT22;36882;27.680;85.304;2023-10-09T15:30:28;22.30;99.90
50907;DHT22;36882;27.680;85.304;2023-10-09T15:32:58;22.20;99.90
50907;DHT22;36882;27.680;85.304;2023-10-09T15:35:29;22.20;99.90
50907;DHT22;36882;27.680;85.304;2023-10-09T15:38:03;22.10;99.90
50907;DHT22;36882;27.680;85.304;2023-10-09T15:40:33;22.10;99.90
50907;DHT22;36882;27.680;85.304;2023-10-09T15:43:04;22.10;99.90
50907;DHT22;36882;27.680;85.304;2023-10-09T15:45:41;22.00;99.90
50907;DHT22;36882;27.680;85.304;2023-10-09T15:48:12;21.90;99.90
50907;DHT22;36882;27.680;85.304;2023-10-09T15:50:46;21.90;99.90
50907;DHT22;36882;27.680;85.304;2023-10-09T15:53:21;22.00;99.90
50907;DHT22;36882;27.680;85.304;2023-10-09T15:55:52;21.90;99.90
50907;DHT22;36882;27.680;85.304;2023-10-09T15:58:26;22.00;99.90
50907;DHT22;36882;27.680;85.304;2023-10-09T16:00:58;21.90;99.90
50907;DHT22;36882;27.680;85.304;2023-10-09T16:03:29;21.90;99.90
50907;DHT22;36882;27.680;85.304;2023-10-09T16:06:00;21.90;99.90
50907;DHT22;36882;27.680;85.304;2023-10-09T16:08:30;21.90;99.90
50907;DHT22;36882;27.680;85.304;2023-10-09T16:11:01;21.80;99.90
50907;DHT22;36882;27.680;85.304;2023-10-09T16:13:32;21.80;99.90
50907;DHT22;36882;27.680;85.304;2023-10-09T16:16:02;21.80;99.90
50907;DHT22;36882;27.680;85.304;2023-10-09T16:18:37;21.80;99.90
50907;DHT22;36882;27.680;85.304;2023-10-09T16:21:08;21.90;99.90
50907;DHT22;36882;27.680;85.304;2023-10-09T16:23:41;21.80;99.90
50907;DHT22;36882;27.680;85.304;2023-10-09T16:26:12;21.70;99.90
50907;DHT22;36882;27.680;85.304;2023-10-09T16:28:43;21.60;99.90
50907;DHT22;36882;27.680;85.304;2023-10-09T16:31:14;21.70;99.90
50907;DHT22;36882;27.680;85.304;2023-10-09T16:33:48;21.70;99.90
50907;DHT22;36882;27.680;85.304;2023-10-09T16:36:19;21.70;99.90
50907;DHT22;36882;27.680;85.304;2023-10-09T16:38:50;21.70;99.90
50907;DHT22;36882;27.680;85.304;2023-10-09T16:41:22;21.80;99.90
50907;DHT22;36882;27.680;85.304;2023-10-09T16:43:55;21.70;99.90
50907;DHT22;36882;27.680;85.304;2023-10-09T16:46:29;21.60;99.90
50907;DHT22;36882;27.680;85.304;2023-10-09T16:49:00;21.50;99.90
50907;DHT22;36882;27.680;85.304;2023-10-09T16:51:34;21.60;99.90
50907;DHT22;36882;27.680;85.304;2023-10-09T16:54:04;21.60;99.90
50907;DHT22;36882;27.680;85.304;2023-10-09T16:56:35;21.60;99.90
50907;DHT22;36882;27.680;85.304;2023-10-09T16:59:06;21.60;99.90
50907;DHT22;36882;27.680;85.304;2023-10-09T17:01:46;21.50;99.90
50907;DHT22;36882;27.680;85.304;2023-10-09T17:04:17;21.40;99.90
50907;DHT22;36882;27.680;85.304;2023-10-09T17:06:49;21.50;99.90
50907;DHT22;36882;27.680;85.304;2023-10-09T17:09:25;21.50;99.90
50907;DHT22;36882;27.680;85.304;2023-10-09T17:11:57;21.40;99.90
50907;DHT22;36882;27.680;85.304;2023-10-09T17:14:27;21.40;99.90
50907;DHT22;36882;27.680;85.304;2023-10-09T17:16:58;21.40;99.90
50907;DHT22;36882;27.680;85.304;2023-10-09T17:19:28;21.40;99.90